Terminal Aerodrome Forecast
Issued by NWS Glasgow, MT

Home | Current Version | Previous Version | Text Only | Print | Product List | Glossary On
Versions: 1 2 3 4 5 6 7 8 9 10 11 12 13 14 15 16 17 18 19 20 21 22 23 24
000
FTUS45 KGGW 011700
TAFGGW
TAF
KGGW 011733Z 0118/0218 14009KT P6SM FEW015 SCT300
     FM012100 15010KT P6SM FEW200 SCT250
     FM020000 11008KT P6SM SCT110 BKN150
     FM021000 35006KT P6SM VCSH SCT040 BKN070
     FM021400 34011KT 3SM -SN BR SCT010 OVC020=

USA.gov is the U.S. government's official web portal to all federal, state and local government web resources and services.